Port Ludlow, Washington
Current Conditions -  °F | °C
As of 4:53 PM on Sunday 23 Nov 2014 (Local Time) from KPAE Reporting Station
Clear Clear  
Wind Chill: 46°   Ceiling: Unl
Heat Index: 48°   Visibility: 10mi
Dew Point: 38°   Wind: 5mph
Humidity: 68%   Direction: NA
Pressure: 30.2"   Gusts: NA
Location:  47.93°N, 122.69°W
Report Text: KPAE 240053Z VRB04KT 10SM CLR 09/03 A3020 RMK AO2 SLP230 T00890033 $
Loading
Personal Weather Stations






























Interactive Weather Map New forecast layout! Learn more

10-Day Weather Forecast

Advertisements
Track Severe Weather on mobile